Impacts TAF Board INFO
FOR SITUATIONAL AWARENESS. NOT TO BE USED FOR FLIGHT PLANNING PURPOSES.
IDs:

KDEN - Denver Intl, CO, US

Issued at 1412 UTC 21 Feb 2018
Updated at 1503 UTC 21 Feb 2018
Potential Impact None Slight Moderate High
Time<<22/04Z 22/05Z 22/06Z 22/07Z 22/08Z 22/09Z 22/10Z 22/11Z 22/12Z 22/13Z 22/14Z 22/15Z 22/16Z>>
Type PRVL PRVL PRVL PRVL PRVL PRVL PRVL PRVL PRVL PRVL PRVL PRVL PRVL
VIS >6 >6 >6 >6 >6 >6 >6 >6 >6 >6 >6 >6 >6
CIG 70 70 50 50 50 50 50 14 14 14 14 14 14
Cover BKN BKN BKN BKN BKN BKN BKN OVC OVC OVC OVC OVC OVC
FltCat VFR VFR VFR VFR VFR VFR VFR MVFR MVFR MVFR MVFR MVFR MVFR
WX -- -- -- -- -- -- -- VCFG VCFG VCFG VCFG VCFG VCFG
WDir 290 290 220 220 220 220 220 290 290 290 290 290 290
WSpd 6 6 7 7 7 7 7 6 6 6 6 6 6
WGst -- -- -- -- -- -- -- -- -- -- -- -- --

Raw TAF
KDEN 211412Z 2114/2218 21008KT P6SM VCFG FEW005
  TEMPO 2114/2116 3SM BR SCT005
  FM211600 VRB04KT P6SM FEW120
  FM212100 36007KT P6SM FEW050 SCT100
  FM220100 29006KT P6SM SCT040 BKN070
  FM220600 22007KT P6SM SCT030 BKN050
  FM221100 29006KT P6SM VCFG BKN014 OVC030


METAR Board
Radar Display
Forecast Discussion

FOR SITUATIONAL AWARENESS. NOT TO BE USED FOR FLIGHT PLANNING PURPOSES.